aviador You're here:

KTCL Decoded Metar

TUSCALOOSA in AL, USA
Report Time2018-05-23 15:53:00
UTC Time2018-05-23 16:49:45
Flight Rules unknown UNKNOWN
WindCalm
VisibilityN/A
Phenomena:N/A
Clouds:Few 075 Hf
Expected CloudBase > 3,600 ft AGL from Temp-Dew spread
CeilingNone
Temp30°C (ISA +15)
Dew Point21°C (59% RH)
Heat Index32.6°C
QNH1019 hPa
Density Alt2,044 ft
Elevation161 ft
Report Wrong Elevation
Raw Report
METAR KTCL 231553Z 00000KT FEW075 30/21 A3009 RMK AO2 SLP185 T03000206
$=

Extra information for KTCL:More info

Metar Taf Metar & Taf Last 4 Metars F.Rules Stats Wind Profile Meteogram Temp Stats Airport Information Weather charts Add Link Nearby VenuesMetar ALERT Operation Metar Decoded Social comments

AIRNAV info for KTCL